sensor_id;sensor_type;location;lat;lon;timestamp;pressure;altitude;pressure_sealevel;temperature;humidity
27358;BME280;14831;50.474;7.616;2024-01-11T00:02:47;99150;;;-8.0;83.6
27358;BME280;14831;50.474;7.616;2024-01-11T00:07:47;99150;;;-8.2;84.4
27358;BME280;14831;50.474;7.616;2024-01-11T00:12:47;99150;;;-8.1;84.7
27358;BME280;14831;50.474;7.616;2024-01-11T00:17:47;99150;;;-8.0;84.5
27358;BME280;14831;50.474;7.616;2024-01-11T00:22:47;99150;;;-7.9;84.3
27358;BME280;14831;50.474;7.616;2024-01-11T00:27:47;99160;;;-8.1;84.5
27358;BME280;14831;50.474;7.616;2024-01-11T00:32:47;99160;;;-8.1;85.0
27358;BME280;14831;50.474;7.616;2024-01-11T00:37:49;99150;;;-7.9;84.9
27358;BME280;14831;50.474;7.616;2024-01-11T00:42:47;99160;;;-7.9;84.4
27358;BME280;14831;50.474;7.616;2024-01-11T00:47:47;99150;;;-7.8;84.0
27358;BME280;14831;50.474;7.616;2024-01-11T00:52:47;99160;;;-7.7;83.6
27358;BME280;14831;50.474;7.616;2024-01-11T00:57:47;99160;;;-7.7;83.4
27358;BME280;14831;50.474;7.616;2024-01-11T01:02:47;99160;;;-7.7;83.2
27358;BME280;14831;50.474;7.616;2024-01-11T01:07:47;99160;;;-7.7;83.0
27358;BME280;14831;50.474;7.616;2024-01-11T01:12:47;99170;;;-7.6;82.8
27358;BME280;14831;50.474;7.616;2024-01-11T01:17:47;99170;;;-7.7;82.5
27358;BME280;14831;50.474;7.616;2024-01-11T01:22:47;99160;;;-7.8;82.6
27358;BME280;14831;50.474;7.616;2024-01-11T01:27:47;99160;;;-7.8;82.8
27358;BME280;14831;50.474;7.616;2024-01-11T01:32:47;99170;;;-7.8;82.8
27358;BME280;14831;50.474;7.616;2024-01-11T01:37:47;99170;;;-7.7;82.9
27358;BME280;14831;50.474;7.616;2024-01-11T01:42:47;99170;;;-7.8;82.7
27358;BME280;14831;50.474;7.616;2024-01-11T01:47:47;99180;;;-7.8;83.1
27358;BME280;14831;50.474;7.616;2024-01-11T01:52:47;99180;;;-7.8;83.1
27358;BME280;14831;50.474;7.616;2024-01-11T01:57:47;99190;;;-7.8;83.3
27358;BME280;14831;50.474;7.616;2024-01-11T02:02:50;99200;;;-7.9;83.2
27358;BME280;14831;50.474;7.616;2024-01-11T02:07:47;99190;;;-8.0;83.2
27358;BME280;14831;50.474;7.616;2024-01-11T02:12:47;99200;;;-8.1;83.4
27358;BME280;14831;50.474;7.616;2024-01-11T02:17:47;99190;;;-8.1;83.6
27358;BME280;14831;50.474;7.616;2024-01-11T02:22:49;99180;;;-8.1;83.8
27358;BME280;14831;50.474;7.616;2024-01-11T02:27:47;99190;;;-8.2;83.9
27358;BME280;14831;50.474;7.616;2024-01-11T02:32:48;99190;;;-8.3;84.4
27358;BME280;14831;50.474;7.616;2024-01-11T02:37:47;99190;;;-8.3;84.7
27358;BME280;14831;50.474;7.616;2024-01-11T02:42:48;99200;;;-8.2;85.0
27358;BME280;14831;50.474;7.616;2024-01-11T02:47:47;99200;;;-8.2;84.9
27358;BME280;14831;50.474;7.616;2024-01-11T02:52:47;99190;;;-8.2;85.0
27358;BME280;14831;50.474;7.616;2024-01-11T02:57:47;99190;;;-8.2;85.0
27358;BME280;14831;50.474;7.616;2024-01-11T03:02:47;99190;;;-8.3;84.9
27358;BME280;14831;50.474;7.616;2024-01-11T03:07:47;99180;;;-8.3;85.0
27358;BME280;14831;50.474;7.616;2024-01-11T03:12:47;99190;;;-8.3;85.0
27358;BME280;14831;50.474;7.616;2024-01-11T03:17:47;99180;;;-8.3;85.0
27358;BME280;14831;50.474;7.616;2024-01-11T03:22:47;99180;;;-8.3;85.0
27358;BME280;14831;50.474;7.616;2024-01-11T03:27:47;99170;;;-8.3;85.1
27358;BME280;14831;50.474;7.616;2024-01-11T03:32:47;99180;;;-8.3;85.1
27358;BME280;14831;50.474;7.616;2024-01-11T03:37:47;99180;;;-8.4;85.2
27358;BME280;14831;50.474;7.616;2024-01-11T03:42:47;99170;;;-8.4;85.3
27358;BME280;14831;50.474;7.616;2024-01-11T03:47:47;99170;;;-8.4;85.4
27358;BME280;14831;50.474;7.616;2024-01-11T03:52:47;99160;;;-8.4;85.5
27358;BME280;14831;50.474;7.616;2024-01-11T03:57:47;99150;;;-8.5;85.8
27358;BME280;14831;50.474;7.616;2024-01-11T04:02:47;99160;;;-8.5;86.0
27358;BME280;14831;50.474;7.616;2024-01-11T04:07:47;99160;;;-8.5;86.2
27358;BME280;14831;50.474;7.616;2024-01-11T04:12:47;99170;;;-8.5;86.3
27358;BME280;14831;50.474;7.616;2024-01-11T04:17:47;99170;;;-8.6;86.3
27358;BME280;14831;50.474;7.616;2024-01-11T04:22:47;99170;;;-8.7;86.1
27358;BME280;14831;50.474;7.616;2024-01-11T04:27:50;99180;;;-8.8;86.3
27358;BME280;14831;50.474;7.616;2024-01-11T04:32:47;99170;;;-8.8;86.5
27358;BME280;14831;50.474;7.616;2024-01-11T04:37:47;99160;;;-8.9;86.2
27358;BME280;14831;50.474;7.616;2024-01-11T04:42:47;99180;;;-8.9;86.6
27358;BME280;14831;50.474;7.616;2024-01-11T04:47:49;99180;;;-8.9;86.7
27358;BME280;14831;50.474;7.616;2024-01-11T04:52:47;99190;;;-8.9;86.9
27358;BME280;14831;50.474;7.616;2024-01-11T04:57:47;99190;;;-8.9;87.5
27358;BME280;14831;50.474;7.616;2024-01-11T05:02:47;99180;;;-8.9;87.5
27358;BME280;14831;50.474;7.616;2024-01-11T05:07:48;99190;;;-9.1;87.4
27358;BME280;14831;50.474;7.616;2024-01-11T05:12:47;99190;;;-9.2;87.5
27358;BME280;14831;50.474;7.616;2024-01-11T05:17:47;99200;;;-9.3;87.5
27358;BME280;14831;50.474;7.616;2024-01-11T05:22:47;99200;;;-9.3;87.6
27358;BME280;14831;50.474;7.616;2024-01-11T05:27:47;99210;;;-9.3;87.5
27358;BME280;14831;50.474;7.616;2024-01-11T05:32:47;99200;;;-9.3;87.6
27358;BME280;14831;50.474;7.616;2024-01-11T05:37:47;99210;;;-9.3;87.9
27358;BME280;14831;50.474;7.616;2024-01-11T05:42:47;99220;;;-9.3;88.1
27358;BME280;14831;50.474;7.616;2024-01-11T05:47:47;99220;;;-9.3;88.4
27358;BME280;14831;50.474;7.616;2024-01-11T05:52:47;99220;;;-9.4;88.4
27358;BME280;14831;50.474;7.616;2024-01-11T05:57:47;99220;;;-9.4;88.8
27358;BME280;14831;50.474;7.616;2024-01-11T06:02:47;99220;;;-9.3;89.2
27358;BME280;14831;50.474;7.616;2024-01-11T06:07:47;99240;;;-9.2;89.2
27358;BME280;14831;50.474;7.616;2024-01-11T06:12:47;99240;;;-9.2;89.3
27358;BME280;14831;50.474;7.616;2024-01-11T06:17:47;99260;;;-9.1;89.6
27358;BME280;14831;50.474;7.616;2024-01-11T06:22:47;99260;;;-9.3;89.3
27358;BME280;14831;50.474;7.616;2024-01-11T06:27:47;99270;;;-9.5;89.2
27358;BME280;14831;50.474;7.616;2024-01-11T06:32:50;99270;;;-9.5;89.0
27358;BME280;14831;50.474;7.616;2024-01-11T06:37:47;99290;;;-9.4;89.2
27358;BME280;14831;50.474;7.616;2024-01-11T06:42:47;99280;;;-9.4;89.0
27358;BME280;14831;50.474;7.616;2024-01-11T06:47:47;99300;;;-9.4;89.5
27358;BME280;14831;50.474;7.616;2024-01-11T06:52:47;99290;;;-9.4;89.8
27358;BME280;14831;50.474;7.616;2024-01-11T06:57:47;99290;;;-9.4;89.7
27358;BME280;14831;50.474;7.616;2024-01-11T07:02:47;99300;;;-9.4;89.7
27358;BME280;14831;50.474;7.616;2024-01-11T07:07:47;99290;;;-9.4;89.8
27358;BME280;14831;50.474;7.616;2024-01-11T07:12:47;99300;;;-9.4;89.8
27358;BME280;14831;50.474;7.616;2024-01-11T07:17:47;99300;;;-9.4;89.8
27358;BME280;14831;50.474;7.616;2024-01-11T07:22:47;99310;;;-9.4;89.9
27358;BME280;14831;50.474;7.616;2024-01-11T07:27:47;99310;;;-9.4;89.8
27358;BME280;14831;50.474;7.616;2024-01-11T07:32:47;99310;;;-9.5;89.6
27358;BME280;14831;50.474;7.616;2024-01-11T07:37:47;99300;;;-9.5;89.7
27358;BME280;14831;50.474;7.616;2024-01-11T07:42:47;99290;;;-9.5;89.8
27358;BME280;14831;50.474;7.616;2024-01-11T07:47:47;99280;;;-9.6;89.8
27358;BME280;14831;50.474;7.616;2024-01-11T07:52:47;99290;;;-9.6;90.0
27358;BME280;14831;50.474;7.616;2024-01-11T07:57:47;99290;;;-9.5;90.1
27358;BME280;14831;50.474;7.616;2024-01-11T08:02:47;99290;;;-9.4;90.4
27358;BME280;14831;50.474;7.616;2024-01-11T08:07:47;99300;;;-9.3;90.2
27358;BME280;14831;50.474;7.616;2024-01-11T08:12:47;99300;;;-9.3;90.1
27358;BME280;14831;50.474;7.616;2024-01-11T08:17:47;99310;;;-9.3;89.9
27358;BME280;14831;50.474;7.616;2024-01-11T08:22:47;99320;;;-9.2;89.8
27358;BME280;14831;50.474;7.616;2024-01-11T08:27:48;99330;;;-9.1;90.0
27358;BME280;14831;50.474;7.616;2024-01-11T08:32:47;99330;;;-9.0;90.1
27358;BME280;14831;50.474;7.616;2024-01-11T08:37:49;99340;;;-8.9;90.1
27358;BME280;14831;50.474;7.616;2024-01-11T08:42:47;99350;;;-8.9;89.9
27358;BME280;14831;50.474;7.616;2024-01-11T08:47:47;99350;;;-8.8;89.6
27358;BME280;14831;50.474;7.616;2024-01-11T08:52:47;99340;;;-8.7;89.0
27358;BME280;14831;50.474;7.616;2024-01-11T08:57:47;99320;;;-8.4;88.8
27358;BME280;14831;50.474;7.616;2024-01-11T09:02:47;99320;;;-7.9;88.0
27358;BME280;14831;50.474;7.616;2024-01-11T09:07:47;99330;;;-7.7;87.5
27358;BME280;14831;50.474;7.616;2024-01-11T09:12:47;99340;;;-7.3;86.5
27358;BME280;14831;50.474;7.616;2024-01-11T09:17:48;99340;;;-6.7;85.7
27358;BME280;14831;50.474;7.616;2024-01-11T09:22:47;99330;;;-6.4;84.8
27358;BME280;14831;50.474;7.616;2024-01-11T09:27:47;99330;;;-5.9;83.7
27358;BME280;14831;50.474;7.616;2024-01-11T09:32:47;99310;;;-5.3;81.4
27358;BME280;14831;50.474;7.616;2024-01-11T09:37:47;99340;;;-4.6;79.9
27358;BME280;14831;50.474;7.616;2024-01-11T09:42:47;99340;;;-4.1;78.5
27358;BME280;14831;50.474;7.616;2024-01-11T09:47:47;99350;;;-3.8;76.0
27358;BME280;14831;50.474;7.616;2024-01-11T09:52:48;99340;;;-3.9;75.6
27358;BME280;14831;50.474;7.616;2024-01-11T09:57:48;99340;;;-3.0;75.1
27358;BME280;14831;50.474;7.616;2024-01-11T10:02:47;99340;;;-2.3;72.6
27358;BME280;14831;50.474;7.616;2024-01-11T10:07:47;99330;;;-1.5;70.4
27358;BME280;14831;50.474;7.616;2024-01-11T10:12:47;99320;;;-1.0;67.9
27358;BME280;14831;50.474;7.616;2024-01-11T10:17:47;99320;;;-1.6;67.8
27358;BME280;14831;50.474;7.616;2024-01-11T10:22:47;99320;;;-1.3;68.4
27358;BME280;14831;50.474;7.616;2024-01-11T10:27:47;99320;;;-1.0;67.4
27358;BME280;14831;50.474;7.616;2024-01-11T10:32:47;99320;;;-0.8;66.1
27358;BME280;14831;50.474;7.616;2024-01-11T10:37:47;99310;;;-0.3;63.7
27358;BME280;14831;50.474;7.616;2024-01-11T10:42:51;99330;;;-0.7;64.5
27358;BME280;14831;50.474;7.616;2024-01-11T10:47:50;99290;;;0.1;63.5
27358;BME280;14831;50.474;7.616;2024-01-11T10:52:51;99310;;;0.3;61.9
27358;BME280;14831;50.474;7.616;2024-01-11T10:57:47;99310;;;-0.2;63.7
27358;BME280;14831;50.474;7.616;2024-01-11T11:02:48;99300;;;0.5;62.3
27358;BME280;14831;50.474;7.616;2024-01-11T11:07:47;99290;;;0.6;61.3
27358;BME280;14831;50.474;7.616;2024-01-11T11:12:48;99290;;;0.6;61.2
27358;BME280;14831;50.474;7.616;2024-01-11T11:17:47;99290;;;1.3;58.8
27358;BME280;14831;50.474;7.616;2024-01-11T11:22:48;99280;;;1.1;59.6
27358;BME280;14831;50.474;7.616;2024-01-11T11:27:47;99290;;;1.0;59.8
27358;BME280;14831;50.474;7.616;2024-01-11T11:32:47;99280;;;1.6;58.2
27358;BME280;14831;50.474;7.616;2024-01-11T11:37:47;99290;;;0.8;58.3
27358;BME280;14831;50.474;7.616;2024-01-11T11:42:47;99290;;;0.6;58.8
27358;BME280;14831;50.474;7.616;2024-01-11T11:47:47;99290;;;1.4;58.5
27358;BME280;14831;50.474;7.616;2024-01-11T11:52:47;99290;;;1.8;56.3
27358;BME280;14831;50.474;7.616;2024-01-11T11:57:47;99280;;;2.1;56.6
27358;BME280;14831;50.474;7.616;2024-01-11T12:02:47;99290;;;2.5;55.7
27358;BME280;14831;50.474;7.616;2024-01-11T12:07:47;99280;;;2.4;55.4
27358;BME280;14831;50.474;7.616;2024-01-11T12:12:47;99280;;;2.3;55.2
27358;BME280;14831;50.474;7.616;2024-01-11T12:17:47;99280;;;2.0;56.0
27358;BME280;14831;50.474;7.616;2024-01-11T12:22:47;99290;;;2.3;55.4
27358;BME280;14831;50.474;7.616;2024-01-11T12:27:47;99280;;;2.4;54.5
27358;BME280;14831;50.474;7.616;2024-01-11T12:32:47;99280;;;2.7;52.8
27358;BME280;14831;50.474;7.616;2024-01-11T12:37:55;99270;;;2.6;51.3
27358;BME280;14831;50.474;7.616;2024-01-11T12:42:48;99260;;;2.4;51.0
27358;BME280;14831;50.474;7.616;2024-01-11T12:47:48;99240;;;3.3;49.4
27358;BME280;14831;50.474;7.616;2024-01-11T12:52:47;99250;;;3.5;48.8
27358;BME280;14831;50.474;7.616;2024-01-11T12:57:47;99240;;;3.9;48.4
27358;BME280;14831;50.474;7.616;2024-01-11T13:02:47;99250;;;4.1;47.9
27358;BME280;14831;50.474;7.616;2024-01-11T13:07:47;99240;;;3.8;47.3
27358;BME280;14831;50.474;7.616;2024-01-11T13:12:47;99240;;;4.0;48.4
27358;BME280;14831;50.474;7.616;2024-01-11T13:17:47;99250;;;4.1;48.4
27358;BME280;14831;50.474;7.616;2024-01-11T13:22:47;99260;;;4.4;47.4
27358;BME280;14831;50.474;7.616;2024-01-11T13:27:47;99250;;;4.4;46.5
27358;BME280;14831;50.474;7.616;2024-01-11T13:32:47;99260;;;4.8;45.9
27358;BME280;14831;50.474;7.616;2024-01-11T13:37:47;99250;;;5.2;45.3
27358;BME280;14831;50.474;7.616;2024-01-11T13:42:47;99260;;;4.3;45.3
27358;BME280;14831;50.474;7.616;2024-01-11T13:47:47;99260;;;4.3;46.0
27358;BME280;14831;50.474;7.616;2024-01-11T13:52:47;99270;;;4.2;46.2
27358;BME280;14831;50.474;7.616;2024-01-11T13:57:48;99270;;;4.5;45.4
27358;BME280;14831;50.474;7.616;2024-01-11T14:02:47;99260;;;3.9;46.4
27358;BME280;14831;50.474;7.616;2024-01-11T14:07:47;99240;;;3.7;46.7
27358;BME280;14831;50.474;7.616;2024-01-11T14:12:47;99250;;;2.8;49.0
27358;BME280;14831;50.474;7.616;2024-01-11T14:17:47;99250;;;2.7;49.1
27358;BME280;14831;50.474;7.616;2024-01-11T14:22:47;99240;;;2.9;49.6
27358;BME280;14831;50.474;7.616;2024-01-11T14:27:47;99250;;;2.4;49.9
27358;BME280;14831;50.474;7.616;2024-01-11T14:32:50;99260;;;1.9;52.0
27358;BME280;14831;50.474;7.616;2024-01-11T14:37:47;99260;;;1.4;53.0
27358;BME280;14831;50.474;7.616;2024-01-11T14:42:48;99260;;;1.4;54.2
27358;BME280;14831;50.474;7.616;2024-01-11T14:47:47;99260;;;1.1;57.1
27358;BME280;14831;50.474;7.616;2024-01-11T14:52:48;99250;;;0.9;57.4
27358;BME280;14831;50.474;7.616;2024-01-11T14:57:47;99260;;;0.8;58.6
27358;BME280;14831;50.474;7.616;2024-01-11T15:02:47;99270;;;0.6;58.7
27358;BME280;14831;50.474;7.616;2024-01-11T15:07:47;99270;;;0.4;59.5
27358;BME280;14831;50.474;7.616;2024-01-11T15:12:47;99270;;;0.2;59.0
27358;BME280;14831;50.474;7.616;2024-01-11T15:17:47;99260;;;0.1;59.0
27358;BME280;14831;50.474;7.616;2024-01-11T15:22:47;99260;;;-0.1;59.1
27358;BME280;14831;50.474;7.616;2024-01-11T15:27:47;99260;;;-0.3;59.3
27358;BME280;14831;50.474;7.616;2024-01-11T15:32:47;99260;;;-0.4;59.8
27358;BME280;14831;50.474;7.616;2024-01-11T15:37:47;99270;;;-0.6;60.5
27358;BME280;14831;50.474;7.616;2024-01-11T15:42:47;99260;;;-0.8;61.0
27358;BME280;14831;50.474;7.616;2024-01-11T15:47:47;99280;;;-1.0;61.8
27358;BME280;14831;50.474;7.616;2024-01-11T15:52:47;99300;;;-1.1;62.3
27358;BME280;14831;50.474;7.616;2024-01-11T15:57:47;99300;;;-1.2;62.8
27358;BME280;14831;50.474;7.616;2024-01-11T16:02:47;99300;;;-1.4;63.5
27358;BME280;14831;50.474;7.616;2024-01-11T16:07:47;99310;;;-1.5;63.9
27358;BME280;14831;50.474;7.616;2024-01-11T16:12:47;99310;;;-1.6;64.4
27358;BME280;14831;50.474;7.616;2024-01-11T16:17:47;99320;;;-1.7;64.8
27358;BME280;14831;50.474;7.616;2024-01-11T16:22:47;99330;;;-1.8;65.6
27358;BME280;14831;50.474;7.616;2024-01-11T16:27:47;99330;;;-1.9;66.5
27358;BME280;14831;50.474;7.616;2024-01-11T16:32:47;99330;;;-2.1;67.0
27358;BME280;14831;50.474;7.616;2024-01-11T16:37:50;99350;;;-2.2;68.2
27358;BME280;14831;50.474;7.616;2024-01-11T16:42:47;99360;;;-2.3;68.9
27358;BME280;14831;50.474;7.616;2024-01-11T16:47:47;99340;;;-2.4;69.6
27358;BME280;14831;50.474;7.616;2024-01-11T16:52:47;99340;;;-2.5;70.2
27358;BME280;14831;50.474;7.616;2024-01-11T16:57:47;99330;;;-2.6;71.5
27358;BME280;14831;50.474;7.616;2024-01-11T17:02:47;99350;;;-2.7;72.1
27358;BME280;14831;50.474;7.616;2024-01-11T17:07:47;99360;;;-2.7;72.6
27358;BME280;14831;50.474;7.616;2024-01-11T17:12:47;99350;;;-2.8;73.1
27358;BME280;14831;50.474;7.616;2024-01-11T17:17:47;99360;;;-2.9;73.7
27358;BME280;14831;50.474;7.616;2024-01-11T17:22:47;99360;;;-3.0;74.7
27358;BME280;14831;50.474;7.616;2024-01-11T17:27:47;99350;;;-3.0;75.4
27358;BME280;14831;50.474;7.616;2024-01-11T17:32:47;99360;;;-3.1;75.9
27358;BME280;14831;50.474;7.616;2024-01-11T17:37:47;99370;;;-3.1;76.2
27358;BME280;14831;50.474;7.616;2024-01-11T17:42:47;99370;;;-3.2;76.8
27358;BME280;14831;50.474;7.616;2024-01-11T17:47:47;99360;;;-3.3;77.3
27358;BME280;14831;50.474;7.616;2024-01-11T17:52:47;99360;;;-3.3;77.3
27358;BME280;14831;50.474;7.616;2024-01-11T17:57:47;99380;;;-3.4;77.6
27358;BME280;14831;50.474;7.616;2024-01-11T18:02:47;99380;;;-3.5;77.7
27358;BME280;14831;50.474;7.616;2024-01-11T18:07:47;99370;;;-3.5;77.5
27358;BME280;14831;50.474;7.616;2024-01-11T18:12:47;99380;;;-3.5;77.4
27358;BME280;14831;50.474;7.616;2024-01-11T18:17:47;99370;;;-3.5;77.4
27358;BME280;14831;50.474;7.616;2024-01-11T18:22:47;99360;;;-3.6;77.3
27358;BME280;14831;50.474;7.616;2024-01-11T18:27:47;99360;;;-3.6;77.3
27358;BME280;14831;50.474;7.616;2024-01-11T18:32:47;99350;;;-3.7;77.1
27358;BME280;14831;50.474;7.616;2024-01-11T18:37:47;99350;;;-3.7;76.7
27358;BME280;14831;50.474;7.616;2024-01-11T18:42:49;99340;;;-3.7;76.7
27358;BME280;14831;50.474;7.616;2024-01-11T18:47:47;99340;;;-3.8;76.5
27358;BME280;14831;50.474;7.616;2024-01-11T18:52:47;99340;;;-3.8;76.5
27358;BME280;14831;50.474;7.616;2024-01-11T18:57:47;99360;;;-3.8;76.3
27358;BME280;14831;50.474;7.616;2024-01-11T19:02:47;99370;;;-3.9;76.2
27358;BME280;14831;50.474;7.616;2024-01-11T19:07:47;99370;;;-3.9;75.9
27358;BME280;14831;50.474;7.616;2024-01-11T19:12:47;99390;;;-3.9;76.0
27358;BME280;14831;50.474;7.616;2024-01-11T19:17:47;99390;;;-4.0;76.2
27358;BME280;14831;50.474;7.616;2024-01-11T19:22:48;99390;;;-4.0;76.5
27358;BME280;14831;50.474;7.616;2024-01-11T19:27:47;99390;;;-4.2;76.8
27358;BME280;14831;50.474;7.616;2024-01-11T19:32:47;99400;;;-4.3;77.1
27358;BME280;14831;50.474;7.616;2024-01-11T19:37:47;99400;;;-4.4;77.8
27358;BME280;14831;50.474;7.616;2024-01-11T19:42:47;99410;;;-4.4;77.4
27358;BME280;14831;50.474;7.616;2024-01-11T19:47:47;99400;;;-4.3;76.0
27358;BME280;14831;50.474;7.616;2024-01-11T19:52:47;99410;;;-4.3;75.3
27358;BME280;14831;50.474;7.616;2024-01-11T19:57:47;99420;;;-4.3;75.1
27358;BME280;14831;50.474;7.616;2024-01-11T20:02:47;99410;;;-4.4;75.4
27358;BME280;14831;50.474;7.616;2024-01-11T20:07:47;99430;;;-4.4;75.4
27358;BME280;14831;50.474;7.616;2024-01-11T20:12:47;99410;;;-4.4;75.3
27358;BME280;14831;50.474;7.616;2024-01-11T20:17:47;99400;;;-4.5;75.3
27358;BME280;14831;50.474;7.616;2024-01-11T20:22:47;99400;;;-4.6;75.5
27358;BME280;14831;50.474;7.616;2024-01-11T20:27:47;99400;;;-4.6;75.7
27358;BME280;14831;50.474;7.616;2024-01-11T20:32:47;99400;;;-4.6;76.1
27358;BME280;14831;50.474;7.616;2024-01-11T20:37:47;99410;;;-4.8;76.2
27358;BME280;14831;50.474;7.616;2024-01-11T20:42:47;99410;;;-4.9;76.5
27358;BME280;14831;50.474;7.616;2024-01-11T20:47:47;99410;;;-4.9;76.9
27358;BME280;14831;50.474;7.616;2024-01-11T20:52:47;99420;;;-4.9;76.9
27358;BME280;14831;50.474;7.616;2024-01-11T20:57:47;99410;;;-4.9;77.1
27358;BME280;14831;50.474;7.616;2024-01-11T21:02:47;99410;;;-5.0;77.7
27358;BME280;14831;50.474;7.616;2024-01-11T21:07:48;99400;;;-5.0;77.8
27358;BME280;14831;50.474;7.616;2024-01-11T21:12:47;99400;;;-5.0;77.9
27358;BME280;14831;50.474;7.616;2024-01-11T21:17:47;99410;;;-5.1;77.9
27358;BME280;14831;50.474;7.616;2024-01-11T21:22:47;99390;;;-5.2;78.1
27358;BME280;14831;50.474;7.616;2024-01-11T21:27:47;99400;;;-5.1;78.7
27358;BME280;14831;50.474;7.616;2024-01-11T21:32:47;99400;;;-5.1;78.9
27358;BME280;14831;50.474;7.616;2024-01-11T21:37:47;99420;;;-5.2;78.8
27358;BME280;14831;50.474;7.616;2024-01-11T21:42:47;99440;;;-5.3;79.3
27358;BME280;14831;50.474;7.616;2024-01-11T21:47:47;99440;;;-5.4;79.6
27358;BME280;14831;50.474;7.616;2024-01-11T21:52:47;99440;;;-5.6;79.9
27358;BME280;14831;50.474;7.616;2024-01-11T21:57:47;99430;;;-5.6;80.2
27358;BME280;14831;50.474;7.616;2024-01-11T22:02:47;99420;;;-5.6;80.4
27358;BME280;14831;50.474;7.616;2024-01-11T22:07:47;99420;;;-5.8;80.4
27358;BME280;14831;50.474;7.616;2024-01-11T22:12:47;99420;;;-5.8;80.6
27358;BME280;14831;50.474;7.616;2024-01-11T22:17:47;99430;;;-5.8;80.7
27358;BME280;14831;50.474;7.616;2024-01-11T22:22:47;99420;;;-5.8;80.8
27358;BME280;14831;50.474;7.616;2024-01-11T22:27:47;99420;;;-5.9;80.9
27358;BME280;14831;50.474;7.616;2024-01-11T22:32:47;99430;;;-5.8;81.3
27358;BME280;14831;50.474;7.616;2024-01-11T22:37:47;99420;;;-5.9;81.3
27358;BME280;14831;50.474;7.616;2024-01-11T22:42:47;99430;;;-6.1;82.3
27358;BME280;14831;50.474;7.616;2024-01-11T22:47:47;99430;;;-6.0;82.9
27358;BME280;14831;50.474;7.616;2024-01-11T22:52:50;99430;;;-6.1;83.7
27358;BME280;14831;50.474;7.616;2024-01-11T22:57:47;99430;;;-6.2;83.7
27358;BME280;14831;50.474;7.616;2024-01-11T23:02:48;99430;;;-6.1;83.8
27358;BME280;14831;50.474;7.616;2024-01-11T23:07:48;99430;;;-6.2;83.7
27358;BME280;14831;50.474;7.616;2024-01-11T23:12:49;99430;;;-6.2;84.1
27358;BME280;14831;50.474;7.616;2024-01-11T23:17:47;99420;;;-6.2;85.0
27358;BME280;14831;50.474;7.616;2024-01-11T23:22:47;99420;;;-6.3;84.9
27358;BME280;14831;50.474;7.616;2024-01-11T23:27:47;99420;;;-6.3;84.8
27358;BME280;14831;50.474;7.616;2024-01-11T23:32:48;99420;;;-6.3;85.4
27358;BME280;14831;50.474;7.616;2024-01-11T23:37:47;99410;;;-6.4;85.8
27358;BME280;14831;50.474;7.616;2024-01-11T23:42:47;99420;;;-6.4;85.8
27358;BME280;14831;50.474;7.616;2024-01-11T23:47:47;99430;;;-6.5;86.0
27358;BME280;14831;50.474;7.616;2024-01-11T23:52:47;99420;;;-6.4;86.4
27358;BME280;14831;50.474;7.616;2024-01-11T23:57:47;99410;;;-6.6;86.4
